Jolly Acres, South Dakota
Current Conditions -  °F | °C
As of 1:52 PM on Saturday 22 Nov 2014 (Local Time) from KRAP Reporting Station
Broken Clouds Broken Clouds  
Wind Chill: 12°   Ceiling: 11000
Heat Index: 12°   Visibility: 10mi
Dew Point: -2°   Wind: 10mph
Humidity: 38%   Direction: 260°W
Pressure: 29.39"   Gusts: NA
Location:  44.0731°N, 103.205°W
Report Text: KRAP 222052Z 26009KT 10SM BKN110 12/M02 A2939 RMK AO2 SLP964 6//// T01221017 56016 PNO $
Loading
Personal Weather Stations






























Interactive Weather Map New forecast layout! Learn more

10-Day Weather Forecast

Advertisements
Track Severe Weather on mobile